sensor_id;sensor_type;location;lat;lon;timestamp;temperature;humidity
48515;DHT22;34309;47.260;2.796;2022-09-12T00:02:20;22.60;35.50
48515;DHT22;34309;47.260;2.796;2022-09-12T00:04:46;22.50;35.20
48515;DHT22;34309;47.260;2.796;2022-09-12T00:07:12;22.60;35.30
48515;DHT22;34309;47.260;2.796;2022-09-12T00:09:38;22.50;35.10
48515;DHT22;34309;47.260;2.796;2022-09-12T00:12:04;22.60;35.40
48515;DHT22;34309;47.260;2.796;2022-09-12T00:14:30;22.50;35.00
48515;DHT22;34309;47.260;2.796;2022-09-12T00:16:57;22.60;35.20
48515;DHT22;34309;47.260;2.796;2022-09-12T00:19:25;22.50;35.30
48515;DHT22;34309;47.260;2.796;2022-09-12T00:21:51;22.50;35.30
48515;DHT22;34309;47.260;2.796;2022-09-12T00:24:16;22.50;35.30
48515;DHT22;34309;47.260;2.796;2022-09-12T00:26:42;22.50;35.10
48515;DHT22;34309;47.260;2.796;2022-09-12T00:29:16;22.50;35.10
48515;DHT22;34309;47.260;2.796;2022-09-12T00:31:42;22.50;35.10
48515;DHT22;34309;47.260;2.796;2022-09-12T00:34:08;22.50;35.10
48515;DHT22;34309;47.260;2.796;2022-09-12T00:36:34;22.50;35.30
48515;DHT22;34309;47.260;2.796;2022-09-12T00:39:01;22.50;35.10
48515;DHT22;34309;47.260;2.796;2022-09-12T00:41:34;22.50;34.90
48515;DHT22;34309;47.260;2.796;2022-09-12T00:47:03;22.50;35.10
48515;DHT22;34309;47.260;2.796;2022-09-12T00:52:07;22.50;35.10
48515;DHT22;34309;47.260;2.796;2022-09-12T00:54:40;22.50;35.00
48515;DHT22;34309;47.260;2.796;2022-09-12T00:57:08;22.50;35.10
48515;DHT22;34309;47.260;2.796;2022-09-12T00:59:42;22.50;35.10
48515;DHT22;34309;47.260;2.796;2022-09-12T01:02:10;22.50;35.10
48515;DHT22;34309;47.260;2.796;2022-09-12T01:04:37;22.50;35.10
48515;DHT22;34309;47.260;2.796;2022-09-12T01:07:04;22.50;35.00
48515;DHT22;34309;47.260;2.796;2022-09-12T01:09:30;22.50;35.10
48515;DHT22;34309;47.260;2.796;2022-09-12T01:11:57;22.50;35.20
48515;DHT22;34309;47.260;2.796;2022-09-12T01:14:23;22.50;35.30
48515;DHT22;34309;47.260;2.796;2022-09-12T01:16:49;22.50;35.10
48515;DHT22;34309;47.260;2.796;2022-09-12T01:38:59;22.50;34.90
48515;DHT22;34309;47.260;2.796;2022-09-12T01:41:36;22.50;34.90
48515;DHT22;34309;47.260;2.796;2022-09-12T01:44:23;22.40;34.90
48515;DHT22;34309;47.260;2.796;2022-09-12T01:47:16;22.40;34.90
48515;DHT22;34309;47.260;2.796;2022-09-12T01:50:04;22.40;34.90
48515;DHT22;34309;47.260;2.796;2022-09-12T01:53:05;22.40;34.70
48515;DHT22;34309;47.260;2.796;2022-09-12T01:55:45;22.40;34.60
48515;DHT22;34309;47.260;2.796;2022-09-12T01:58:17;22.40;34.60
48515;DHT22;34309;47.260;2.796;2022-09-12T02:01:08;22.40;34.70
48515;DHT22;34309;47.260;2.796;2022-09-12T02:04:08;22.40;34.80
48515;DHT22;34309;47.260;2.796;2022-09-12T02:06:51;22.40;34.70
48515;DHT22;34309;47.260;2.796;2022-09-12T02:09:35;22.40;34.60
48515;DHT22;34309;47.260;2.796;2022-09-12T02:12:04;22.40;34.80
48515;DHT22;34309;47.260;2.796;2022-09-12T02:14:44;22.40;34.70
48515;DHT22;34309;47.260;2.796;2022-09-12T02:17:13;22.40;34.70
48515;DHT22;34309;47.260;2.796;2022-09-12T02:19:56;22.40;34.90
48515;DHT22;34309;47.260;2.796;2022-09-12T02:22:25;22.40;34.60
48515;DHT22;34309;47.260;2.796;2022-09-12T02:24:56;22.40;34.60
48515;DHT22;34309;47.260;2.796;2022-09-12T02:27:34;22.40;34.60
48515;DHT22;34309;47.260;2.796;2022-09-12T02:30:03;22.40;34.70
48515;DHT22;34309;47.260;2.796;2022-09-12T02:32:36;22.40;34.70
48515;DHT22;34309;47.260;2.796;2022-09-12T02:40:15;22.40;34.50
48515;DHT22;34309;47.260;2.796;2022-09-12T02:42:42;22.40;34.70
48515;DHT22;34309;47.260;2.796;2022-09-12T02:45:08;22.40;34.70
48515;DHT22;34309;47.260;2.796;2022-09-12T02:47:52;22.40;34.80
48515;DHT22;34309;47.260;2.796;2022-09-12T02:50:19;22.40;34.60
48515;DHT22;34309;47.260;2.796;2022-09-12T02:52:45;22.30;35.20
48515;DHT22;34309;47.260;2.796;2022-09-12T02:55:13;22.30;34.40
48515;DHT22;34309;47.260;2.796;2022-09-12T02:57:39;22.40;34.50
48515;DHT22;34309;47.260;2.796;2022-09-12T03:00:05;22.30;34.40
48515;DHT22;34309;47.260;2.796;2022-09-12T03:05:33;22.30;34.50
48515;DHT22;34309;47.260;2.796;2022-09-12T03:13:27;22.30;34.90
48515;DHT22;34309;47.260;2.796;2022-09-12T03:22:00;22.30;34.20
48515;DHT22;34309;47.260;2.796;2022-09-12T03:27:58;22.30;34.40
48515;DHT22;34309;47.260;2.796;2022-09-12T03:30:25;22.30;34.30
48515;DHT22;34309;47.260;2.796;2022-09-12T03:32:53;22.30;34.30
48515;DHT22;34309;47.260;2.796;2022-09-12T03:35:22;22.30;34.30
48515;DHT22;34309;47.260;2.796;2022-09-12T03:37:49;22.30;34.10
48515;DHT22;34309;47.260;2.796;2022-09-12T03:40:15;22.30;34.10
48515;DHT22;34309;47.260;2.796;2022-09-12T03:42:41;22.30;34.00
48515;DHT22;34309;47.260;2.796;2022-09-12T03:45:07;22.30;34.20
48515;DHT22;34309;47.260;2.796;2022-09-12T03:47:33;22.30;34.00
48515;DHT22;34309;47.260;2.796;2022-09-12T03:49:59;22.30;34.10
48515;DHT22;34309;47.260;2.796;2022-09-12T03:52:25;22.30;34.10
48515;DHT22;34309;47.260;2.796;2022-09-12T03:54:51;22.30;34.10
48515;DHT22;34309;47.260;2.796;2022-09-12T03:57:17;22.20;34.10
48515;DHT22;34309;47.260;2.796;2022-09-12T03:59:42;22.30;34.80
48515;DHT22;34309;47.260;2.796;2022-09-12T04:02:08;22.20;34.00
48515;DHT22;34309;47.260;2.796;2022-09-12T04:04:37;22.20;34.10
48515;DHT22;34309;47.260;2.796;2022-09-12T04:07:03;22.20;33.90
48515;DHT22;34309;47.260;2.796;2022-09-12T04:09:28;22.20;34.10
48515;DHT22;34309;47.260;2.796;2022-09-12T04:11:54;22.20;34.10
48515;DHT22;34309;47.260;2.796;2022-09-12T04:14:20;22.20;34.10
48515;DHT22;34309;47.260;2.796;2022-09-12T04:16:45;22.20;34.20
48515;DHT22;34309;47.260;2.796;2022-09-12T04:19:11;22.20;34.10
48515;DHT22;34309;47.260;2.796;2022-09-12T04:21:37;22.20;34.10
48515;DHT22;34309;47.260;2.796;2022-09-12T04:24:04;22.20;34.00
48515;DHT22;34309;47.260;2.796;2022-09-12T04:26:30;22.20;34.10
48515;DHT22;34309;47.260;2.796;2022-09-12T04:28:56;22.20;33.90
48515;DHT22;34309;47.260;2.796;2022-09-12T04:31:23;22.20;34.00
48515;DHT22;34309;47.260;2.796;2022-09-12T04:33:53;22.20;34.20
48515;DHT22;34309;47.260;2.796;2022-09-12T04:36:19;22.20;33.80
48515;DHT22;34309;47.260;2.796;2022-09-12T04:38:46;22.20;33.90
48515;DHT22;34309;47.260;2.796;2022-09-12T04:41:13;22.20;33.80
48515;DHT22;34309;47.260;2.796;2022-09-12T04:43:40;22.20;33.80
48515;DHT22;34309;47.260;2.796;2022-09-12T04:46:07;22.20;33.80
48515;DHT22;34309;47.260;2.796;2022-09-12T04:48:33;22.20;33.70
48515;DHT22;34309;47.260;2.796;2022-09-12T04:51:13;22.20;33.60
48515;DHT22;34309;47.260;2.796;2022-09-12T04:53:40;22.20;33.70
48515;DHT22;34309;47.260;2.796;2022-09-12T04:56:09;22.20;33.70
48515;DHT22;34309;47.260;2.796;2022-09-12T04:58:35;22.10;33.70
48515;DHT22;34309;47.260;2.796;2022-09-12T05:01:06;22.10;33.60
48515;DHT22;34309;47.260;2.796;2022-09-12T05:03:33;22.20;33.70
48515;DHT22;34309;47.260;2.796;2022-09-12T05:06:01;22.10;33.70
48515;DHT22;34309;47.260;2.796;2022-09-12T05:08:28;22.10;33.90
48515;DHT22;34309;47.260;2.796;2022-09-12T05:10:53;22.10;33.60
48515;DHT22;34309;47.260;2.796;2022-09-12T05:13:19;22.10;33.60
48515;DHT22;34309;47.260;2.796;2022-09-12T05:15:57;22.10;33.40
48515;DHT22;34309;47.260;2.796;2022-09-12T05:18:23;22.10;33.80
48515;DHT22;34309;47.260;2.796;2022-09-12T05:20:51;22.10;33.50
48515;DHT22;34309;47.260;2.796;2022-09-12T05:23:17;22.10;33.60
48515;DHT22;34309;47.260;2.796;2022-09-12T05:25:52;22.10;33.60
48515;DHT22;34309;47.260;2.796;2022-09-12T05:28:19;22.10;33.60
48515;DHT22;34309;47.260;2.796;2022-09-12T05:30:45;22.10;33.40
48515;DHT22;34309;47.260;2.796;2022-09-12T05:33:12;22.10;33.70
48515;DHT22;34309;47.260;2.796;2022-09-12T05:35:38;22.10;33.70
48515;DHT22;34309;47.260;2.796;2022-09-12T05:38:05;22.10;33.50
48515;DHT22;34309;47.260;2.796;2022-09-12T05:40:32;22.10;33.50
48515;DHT22;34309;47.260;2.796;2022-09-12T05:42:58;22.10;33.40
48515;DHT22;34309;47.260;2.796;2022-09-12T05:45:24;22.10;33.40
48515;DHT22;34309;47.260;2.796;2022-09-12T05:47:52;22.10;33.40
48515;DHT22;34309;47.260;2.796;2022-09-12T05:50:19;22.10;33.50
48515;DHT22;34309;47.260;2.796;2022-09-12T05:52:45;22.00;33.40
48515;DHT22;34309;47.260;2.796;2022-09-12T05:55:11;22.10;33.30
48515;DHT22;34309;47.260;2.796;2022-09-12T05:57:36;22.00;33.40
48515;DHT22;34309;47.260;2.796;2022-09-12T06:00:05;22.00;33.30
48515;DHT22;34309;47.260;2.796;2022-09-12T06:02:34;22.00;33.40
48515;DHT22;34309;47.260;2.796;2022-09-12T06:05:00;22.00;33.50
48515;DHT22;34309;47.260;2.796;2022-09-12T06:07:26;22.00;33.60
48515;DHT22;34309;47.260;2.796;2022-09-12T06:09:51;22.00;33.60
48515;DHT22;34309;47.260;2.796;2022-09-12T06:12:17;22.00;33.50
48515;DHT22;34309;47.260;2.796;2022-09-12T06:14:43;22.00;33.60
48515;DHT22;34309;47.260;2.796;2022-09-12T06:17:09;22.00;33.70
48515;DHT22;34309;47.260;2.796;2022-09-12T06:19:34;22.00;33.80
48515;DHT22;34309;47.260;2.796;2022-09-12T06:22:00;22.00;33.60
48515;DHT22;34309;47.260;2.796;2022-09-12T06:24:26;22.00;33.60
48515;DHT22;34309;47.260;2.796;2022-09-12T06:26:51;22.00;33.60
48515;DHT22;34309;47.260;2.796;2022-09-12T06:29:18;22.00;33.70
48515;DHT22;34309;47.260;2.796;2022-09-12T06:31:44;22.00;33.70
48515;DHT22;34309;47.260;2.796;2022-09-12T06:34:12;22.00;33.70
48515;DHT22;34309;47.260;2.796;2022-09-12T06:36:41;22.00;33.90
48515;DHT22;34309;47.260;2.796;2022-09-12T06:39:10;22.00;33.80
48515;DHT22;34309;47.260;2.796;2022-09-12T06:41:37;22.00;34.00
48515;DHT22;34309;47.260;2.796;2022-09-12T06:44:02;22.00;34.30
48515;DHT22;34309;47.260;2.796;2022-09-12T06:46:29;22.00;34.50
48515;DHT22;34309;47.260;2.796;2022-09-12T06:48:59;22.00;34.70
48515;DHT22;34309;47.260;2.796;2022-09-12T06:51:26;22.00;34.90
48515;DHT22;34309;47.260;2.796;2022-09-12T06:53:54;21.90;35.00
48515;DHT22;34309;47.260;2.796;2022-09-12T06:56:23;21.90;35.10
48515;DHT22;34309;47.260;2.796;2022-09-12T06:58:50;21.90;35.20
48515;DHT22;34309;47.260;2.796;2022-09-12T07:01:27;21.90;35.30
48515;DHT22;34309;47.260;2.796;2022-09-12T07:03:54;21.90;35.20
48515;DHT22;34309;47.260;2.796;2022-09-12T07:06:23;22.00;35.30
48515;DHT22;34309;47.260;2.796;2022-09-12T07:09:01;22.00;35.20
48515;DHT22;34309;47.260;2.796;2022-09-12T07:11:34;22.00;35.30
48515;DHT22;34309;47.260;2.796;2022-09-12T07:14:03;22.00;35.20
48515;DHT22;34309;47.260;2.796;2022-09-12T07:16:29;22.00;35.20
48515;DHT22;34309;47.260;2.796;2022-09-12T07:18:58;22.00;35.00
48515;DHT22;34309;47.260;2.796;2022-09-12T07:21:26;22.00;35.10
48515;DHT22;34309;47.260;2.796;2022-09-12T07:23:52;22.00;34.90
48515;DHT22;34309;47.260;2.796;2022-09-12T07:26:22;22.00;35.00
48515;DHT22;34309;47.260;2.796;2022-09-12T07:28:59;22.00;34.90
48515;DHT22;34309;47.260;2.796;2022-09-12T07:31:26;22.00;34.90
48515;DHT22;34309;47.260;2.796;2022-09-12T07:33:52;22.00;34.90
48515;DHT22;34309;47.260;2.796;2022-09-12T07:36:19;22.00;34.90
48515;DHT22;34309;47.260;2.796;2022-09-12T07:38:47;22.00;34.90
48515;DHT22;34309;47.260;2.796;2022-09-12T07:41:15;22.00;35.00
48515;DHT22;34309;47.260;2.796;2022-09-12T07:43:41;22.00;35.60
48515;DHT22;34309;47.260;2.796;2022-09-12T07:46:08;22.00;34.90
48515;DHT22;34309;47.260;2.796;2022-09-12T07:48:33;22.00;34.90
48515;DHT22;34309;47.260;2.796;2022-09-12T07:51:01;22.00;34.80
48515;DHT22;34309;47.260;2.796;2022-09-12T07:53:32;22.00;34.80
48515;DHT22;34309;47.260;2.796;2022-09-12T07:55:59;22.00;35.50
48515;DHT22;34309;47.260;2.796;2022-09-12T07:58:25;22.00;35.40
48515;DHT22;34309;47.260;2.796;2022-09-12T08:00:51;22.00;35.40
48515;DHT22;34309;47.260;2.796;2022-09-12T08:03:17;22.00;35.30
48515;DHT22;34309;47.260;2.796;2022-09-12T08:05:43;22.00;35.70
48515;DHT22;34309;47.260;2.796;2022-09-12T08:08:08;22.00;35.90
48515;DHT22;34309;47.260;2.796;2022-09-12T08:10:35;22.00;35.90
48515;DHT22;34309;47.260;2.796;2022-09-12T08:13:00;22.00;35.80
48515;DHT22;34309;47.260;2.796;2022-09-12T08:15:28;22.00;36.10
48515;DHT22;34309;47.260;2.796;2022-09-12T08:17:54;22.10;36.30
48515;DHT22;34309;47.260;2.796;2022-09-12T08:20:19;22.00;36.20
48515;DHT22;34309;47.260;2.796;2022-09-12T08:22:45;22.00;36.30
48515;DHT22;34309;47.260;2.796;2022-09-12T08:25:12;22.10;36.60
48515;DHT22;34309;47.260;2.796;2022-09-12T08:27:38;22.10;36.60
48515;DHT22;34309;47.260;2.796;2022-09-12T08:30:04;22.10;36.40
48515;DHT22;34309;47.260;2.796;2022-09-12T08:32:31;22.10;36.60
48515;DHT22;34309;47.260;2.796;2022-09-12T08:34:58;22.10;36.70
48515;DHT22;34309;47.260;2.796;2022-09-12T08:37:24;22.10;36.70
48515;DHT22;34309;47.260;2.796;2022-09-12T08:39:49;22.10;36.60
48515;DHT22;34309;47.260;2.796;2022-09-12T08:42:29;22.10;36.60
48515;DHT22;34309;47.260;2.796;2022-09-12T08:47:33;22.10;36.70
48515;DHT22;34309;47.260;2.796;2022-09-12T08:55:25;22.10;36.70
48515;DHT22;34309;47.260;2.796;2022-09-12T08:57:52;22.10;36.70
48515;DHT22;34309;47.260;2.796;2022-09-12T09:00:19;22.10;36.50
48515;DHT22;34309;47.260;2.796;2022-09-12T09:03:06;22.10;36.50
48515;DHT22;34309;47.260;2.796;2022-09-12T09:05:51;22.10;36.60
48515;DHT22;34309;47.260;2.796;2022-09-12T09:11:16;22.10;36.80
48515;DHT22;34309;47.260;2.796;2022-09-12T09:17:34;22.10;36.80
48515;DHT22;34309;47.260;2.796;2022-09-12T09:22:46;22.20;36.80
48515;DHT22;34309;47.260;2.796;2022-09-12T09:25:22;22.20;36.50
48515;DHT22;34309;47.260;2.796;2022-09-12T09:30:21;22.20;36.30
48515;DHT22;34309;47.260;2.796;2022-09-12T09:32:53;22.20;36.30
48515;DHT22;34309;47.260;2.796;2022-09-12T09:35:42;22.20;36.30
48515;DHT22;34309;47.260;2.796;2022-09-12T09:41:08;22.20;36.50
48515;DHT22;34309;47.260;2.796;2022-09-12T09:43:38;22.20;36.30
48515;DHT22;34309;47.260;2.796;2022-09-12T09:46:04;22.20;36.20
48515;DHT22;34309;47.260;2.796;2022-09-12T09:48:33;22.20;36.60
48515;DHT22;34309;47.260;2.796;2022-09-12T09:51:02;22.20;36.40
48515;DHT22;34309;47.260;2.796;2022-09-12T09:53:46;22.20;36.60
48515;DHT22;34309;47.260;2.796;2022-09-12T09:56:34;22.20;36.40
48515;DHT22;34309;47.260;2.796;2022-09-12T10:01:50;22.20;36.30
48515;DHT22;34309;47.260;2.796;2022-09-12T10:04:30;22.20;36.20
48515;DHT22;34309;47.260;2.796;2022-09-12T10:06:59;22.20;36.20
48515;DHT22;34309;47.260;2.796;2022-09-12T10:09:29;22.30;36.20
48515;DHT22;34309;47.260;2.796;2022-09-12T10:11:58;22.20;36.30
48515;DHT22;34309;47.260;2.796;2022-09-12T10:14:33;22.30;36.40
48515;DHT22;34309;47.260;2.796;2022-09-12T10:17:38;22.30;36.10
48515;DHT22;34309;47.260;2.796;2022-09-12T10:20:32;22.30;36.10
48515;DHT22;34309;47.260;2.796;2022-09-12T10:23:00;22.30;36.10
48515;DHT22;34309;47.260;2.796;2022-09-12T10:25:27;22.30;36.00
48515;DHT22;34309;47.260;2.796;2022-09-12T10:27:58;22.30;36.10
48515;DHT22;34309;47.260;2.796;2022-09-12T10:30:25;22.30;36.30
48515;DHT22;34309;47.260;2.796;2022-09-12T10:32:56;22.30;36.30
48515;DHT22;34309;47.260;2.796;2022-09-12T10:35:30;22.30;36.30
48515;DHT22;34309;47.260;2.796;2022-09-12T10:38:06;22.30;36.50
48515;DHT22;34309;47.260;2.796;2022-09-12T10:40:39;22.30;36.30
48515;DHT22;34309;47.260;2.796;2022-09-12T10:43:17;22.30;36.40
48515;DHT22;34309;47.260;2.796;2022-09-12T10:45:43;22.30;36.20
48515;DHT22;34309;47.260;2.796;2022-09-12T10:48:28;22.30;36.00
48515;DHT22;34309;47.260;2.796;2022-09-12T10:51:00;22.30;36.10
48515;DHT22;34309;47.260;2.796;2022-09-12T10:53:42;22.40;36.10
48515;DHT22;34309;47.260;2.796;2022-09-12T11:17:40;22.40;36.00
48515;DHT22;34309;47.260;2.796;2022-09-12T11:26:27;22.40;35.90
48515;DHT22;34309;47.260;2.796;2022-09-12T11:29:11;22.40;35.90
48515;DHT22;34309;47.260;2.796;2022-09-12T11:40:49;22.50;35.90
48515;DHT22;34309;47.260;2.796;2022-09-12T11:43:38;22.50;36.10
48515;DHT22;34309;47.260;2.796;2022-09-12T11:51:56;22.50;35.90
48515;DHT22;34309;47.260;2.796;2022-09-12T11:54:37;22.50;35.90
48515;DHT22;34309;47.260;2.796;2022-09-12T12:00:22;22.50;35.90
48515;DHT22;34309;47.260;2.796;2022-09-12T12:03:12;22.60;36.10
48515;DHT22;34309;47.260;2.796;2022-09-12T12:08:09;22.60;36.10
48515;DHT22;34309;47.260;2.796;2022-09-12T12:10:46;22.60;36.20
48515;DHT22;34309;47.260;2.796;2022-09-12T12:13:29;22.60;36.00
48515;DHT22;34309;47.260;2.796;2022-09-12T12:18:31;22.60;36.20
48515;DHT22;34309;47.260;2.796;2022-09-12T12:34:37;22.70;36.00
48515;DHT22;34309;47.260;2.796;2022-09-12T12:39:58;22.70;36.10
48515;DHT22;34309;47.260;2.796;2022-09-12T12:55:51;22.70;36.40
48515;DHT22;34309;47.260;2.796;2022-09-12T13:01:16;22.70;36.10
48515;DHT22;34309;47.260;2.796;2022-09-12T13:03:51;22.70;36.30
48515;DHT22;34309;47.260;2.796;2022-09-12T13:06:34;22.80;36.10
48515;DHT22;34309;47.260;2.796;2022-09-12T13:11:57;22.70;35.90
48515;DHT22;34309;47.260;2.796;2022-09-12T13:14:48;22.80;36.10
48515;DHT22;34309;47.260;2.796;2022-09-12T13:17:36;22.80;36.10
48515;DHT22;34309;47.260;2.796;2022-09-12T13:22:42;22.80;36.10
48515;DHT22;34309;47.260;2.796;2022-09-12T13:27:56;22.80;36.10
48515;DHT22;34309;47.260;2.796;2022-09-12T13:30:22;22.80;36.20
48515;DHT22;34309;47.260;2.796;2022-09-12T13:32:48;22.90;36.40
48515;DHT22;34309;47.260;2.796;2022-09-12T13:35:44;22.80;36.00
48515;DHT22;34309;47.260;2.796;2022-09-12T13:43:39;22.90;36.00
48515;DHT22;34309;47.260;2.796;2022-09-12T13:46:07;22.90;36.00
48515;DHT22;34309;47.260;2.796;2022-09-12T13:48:33;22.90;36.10
48515;DHT22;34309;47.260;2.796;2022-09-12T13:51:03;22.90;35.80
48515;DHT22;34309;47.260;2.796;2022-09-12T13:53:43;22.90;35.90
48515;DHT22;34309;47.260;2.796;2022-09-12T13:56:17;22.90;35.80
48515;DHT22;34309;47.260;2.796;2022-09-12T13:58:55;22.90;36.10
48515;DHT22;34309;47.260;2.796;2022-09-12T14:01:24;23.00;35.80
48515;DHT22;34309;47.260;2.796;2022-09-12T14:03:52;22.90;35.70
48515;DHT22;34309;47.260;2.796;2022-09-12T14:06:55;22.90;35.80
48515;DHT22;34309;47.260;2.796;2022-09-12T14:09:31;22.90;35.70
48515;DHT22;34309;47.260;2.796;2022-09-12T14:11:57;22.90;35.70
48515;DHT22;34309;47.260;2.796;2022-09-12T14:14:34;23.00;35.90
48515;DHT22;34309;47.260;2.796;2022-09-12T14:17:23;23.00;35.70
48515;DHT22;34309;47.260;2.796;2022-09-12T14:19:54;23.00;35.60
48515;DHT22;34309;47.260;2.796;2022-09-12T14:22:24;23.00;35.60
48515;DHT22;34309;47.260;2.796;2022-09-12T14:24:54;23.00;35.70
48515;DHT22;34309;47.260;2.796;2022-09-12T14:27:26;23.00;35.60
48515;DHT22;34309;47.260;2.796;2022-09-12T14:30:06;23.00;35.60
48515;DHT22;34309;47.260;2.796;2022-09-12T14:32:33;23.00;35.70
48515;DHT22;34309;47.260;2.796;2022-09-12T14:35:18;23.00;35.70
48515;DHT22;34309;47.260;2.796;2022-09-12T14:37:48;23.00;35.70
48515;DHT22;34309;47.260;2.796;2022-09-12T14:40:17;23.00;35.70
48515;DHT22;34309;47.260;2.796;2022-09-12T14:42:44;23.10;35.60
48515;DHT22;34309;47.260;2.796;2022-09-12T14:45:24;23.00;36.30
48515;DHT22;34309;47.260;2.796;2022-09-12T14:47:52;23.00;35.70
48515;DHT22;34309;47.260;2.796;2022-09-12T14:50:26;23.10;35.60
48515;DHT22;34309;47.260;2.796;2022-09-12T14:55:44;23.10;35.50
48515;DHT22;34309;47.260;2.796;2022-09-12T15:03:37;23.10;35.30
48515;DHT22;34309;47.260;2.796;2022-09-12T15:06:34;23.10;35.40
48515;DHT22;34309;47.260;2.796;2022-09-12T15:09:06;23.10;35.40
48515;DHT22;34309;47.260;2.796;2022-09-12T15:11:32;23.10;35.30
48515;DHT22;34309;47.260;2.796;2022-09-12T15:14:06;23.10;36.00
48515;DHT22;34309;47.260;2.796;2022-09-12T15:16:37;23.10;35.20
48515;DHT22;34309;47.260;2.796;2022-09-12T15:19:02;23.10;35.30
48515;DHT22;34309;47.260;2.796;2022-09-12T15:21:28;23.20;35.40
48515;DHT22;34309;47.260;2.796;2022-09-12T15:23:54;23.20;35.40
48515;DHT22;34309;47.260;2.796;2022-09-12T15:26:22;23.20;35.30
48515;DHT22;34309;47.260;2.796;2022-09-12T15:28:49;23.20;35.30
48515;DHT22;34309;47.260;2.796;2022-09-12T15:33:47;23.20;35.40
48515;DHT22;34309;47.260;2.796;2022-09-12T15:36:16;23.20;35.10
48515;DHT22;34309;47.260;2.796;2022-09-12T15:38:42;23.20;35.20
48515;DHT22;34309;47.260;2.796;2022-09-12T15:41:20;23.20;35.20
48515;DHT22;34309;47.260;2.796;2022-09-12T15:43:46;23.20;35.30
48515;DHT22;34309;47.260;2.796;2022-09-12T15:46:14;23.20;35.20
48515;DHT22;34309;47.260;2.796;2022-09-12T15:48:40;23.20;35.30
48515;DHT22;34309;47.260;2.796;2022-09-12T15:51:24;23.20;35.30
48515;DHT22;34309;47.260;2.796;2022-09-12T15:53:50;23.20;35.30
48515;DHT22;34309;47.260;2.796;2022-09-12T15:56:18;23.20;35.30
48515;DHT22;34309;47.260;2.796;2022-09-12T15:58:44;23.30;35.40
48515;DHT22;34309;47.260;2.796;2022-09-12T16:01:14;23.30;35.50
48515;DHT22;34309;47.260;2.796;2022-09-12T16:03:41;23.30;35.50
48515;DHT22;34309;47.260;2.796;2022-09-12T16:06:07;23.30;35.30
48515;DHT22;34309;47.260;2.796;2022-09-12T16:08:35;23.30;35.30
48515;DHT22;34309;47.260;2.796;2022-09-12T16:11:10;23.40;35.40
48515;DHT22;34309;47.260;2.796;2022-09-12T16:13:37;23.30;35.40
48515;DHT22;34309;47.260;2.796;2022-09-12T16:16:03;23.40;35.50
48515;DHT22;34309;47.260;2.796;2022-09-12T16:18:43;23.30;35.30
48515;DHT22;34309;47.260;2.796;2022-09-12T16:21:24;23.20;35.30
48515;DHT22;34309;47.260;2.796;2022-09-12T16:23:55;23.30;35.40
48515;DHT22;34309;47.260;2.796;2022-09-12T16:26:20;23.30;35.30
48515;DHT22;34309;47.260;2.796;2022-09-12T16:28:46;23.40;35.50
48515;DHT22;34309;47.260;2.796;2022-09-12T16:31:12;23.40;35.40
48515;DHT22;34309;47.260;2.796;2022-09-12T16:33:39;23.40;35.50
48515;DHT22;34309;47.260;2.796;2022-09-12T16:36:07;23.40;35.40
48515;DHT22;34309;47.260;2.796;2022-09-12T16:38:34;23.40;35.50
48515;DHT22;34309;47.260;2.796;2022-09-12T16:41:05;23.40;35.40
48515;DHT22;34309;47.260;2.796;2022-09-12T16:43:32;23.40;35.50
48515;DHT22;34309;47.260;2.796;2022-09-12T16:46:03;23.40;35.50
48515;DHT22;34309;47.260;2.796;2022-09-12T16:48:30;23.40;35.40
48515;DHT22;34309;47.260;2.796;2022-09-12T16:51:01;23.40;35.50
48515;DHT22;34309;47.260;2.796;2022-09-12T16:53:34;23.40;35.30
48515;DHT22;34309;47.260;2.796;2022-09-12T16:56:02;23.50;35.40
48515;DHT22;34309;47.260;2.796;2022-09-12T16:58:31;23.40;35.30
48515;DHT22;34309;47.260;2.796;2022-09-12T17:01:03;23.40;35.30
48515;DHT22;34309;47.260;2.796;2022-09-12T17:03:30;23.50;35.30
48515;DHT22;34309;47.260;2.796;2022-09-12T17:06:01;23.50;35.50
48515;DHT22;34309;47.260;2.796;2022-09-12T17:08:27;23.50;35.50
48515;DHT22;34309;47.260;2.796;2022-09-12T17:10:59;23.50;35.40
48515;DHT22;34309;47.260;2.796;2022-09-12T17:13:25;23.50;35.50
48515;DHT22;34309;47.260;2.796;2022-09-12T17:15:51;23.50;35.30
48515;DHT22;34309;47.260;2.796;2022-09-12T17:18:17;23.50;35.30
48515;DHT22;34309;47.260;2.796;2022-09-12T17:20:43;23.50;35.30
48515;DHT22;34309;47.260;2.796;2022-09-12T17:23:09;23.50;35.30
48515;DHT22;34309;47.260;2.796;2022-09-12T17:25:35;23.50;35.30
48515;DHT22;34309;47.260;2.796;2022-09-12T17:28:01;23.50;35.20
48515;DHT22;34309;47.260;2.796;2022-09-12T17:30:32;23.50;35.20
48515;DHT22;34309;47.260;2.796;2022-09-12T17:32:58;23.50;35.20
48515;DHT22;34309;47.260;2.796;2022-09-12T17:35:24;23.50;35.20
48515;DHT22;34309;47.260;2.796;2022-09-12T17:37:50;23.50;35.30
48515;DHT22;34309;47.260;2.796;2022-09-12T17:40:16;23.50;35.10
48515;DHT22;34309;47.260;2.796;2022-09-12T17:42:42;23.50;35.10
48515;DHT22;34309;47.260;2.796;2022-09-12T17:45:10;23.60;35.30
48515;DHT22;34309;47.260;2.796;2022-09-12T17:47:37;23.60;35.20
48515;DHT22;34309;47.260;2.796;2022-09-12T17:50:03;23.60;35.20
48515;DHT22;34309;47.260;2.796;2022-09-12T17:52:29;23.60;35.10
48515;DHT22;34309;47.260;2.796;2022-09-12T17:54:55;23.60;35.20
48515;DHT22;34309;47.260;2.796;2022-09-12T17:57:21;23.60;35.10
48515;DHT22;34309;47.260;2.796;2022-09-12T17:59:47;23.60;35.20
48515;DHT22;34309;47.260;2.796;2022-09-12T18:02:12;23.60;35.10
48515;DHT22;34309;47.260;2.796;2022-09-12T18:04:39;23.60;35.10
48515;DHT22;34309;47.260;2.796;2022-09-12T18:07:06;23.60;35.10
48515;DHT22;34309;47.260;2.796;2022-09-12T18:09:32;23.60;35.00
48515;DHT22;34309;47.260;2.796;2022-09-12T18:11:58;23.60;35.10
48515;DHT22;34309;47.260;2.796;2022-09-12T18:14:24;23.60;35.10
48515;DHT22;34309;47.260;2.796;2022-09-12T18:16:54;23.60;35.10
48515;DHT22;34309;47.260;2.796;2022-09-12T18:19:22;23.60;35.00
48515;DHT22;34309;47.260;2.796;2022-09-12T18:21:48;23.60;35.10
48515;DHT22;34309;47.260;2.796;2022-09-12T18:24:14;23.60;35.20
48515;DHT22;34309;47.260;2.796;2022-09-12T18:26:40;23.60;35.00
48515;DHT22;34309;47.260;2.796;2022-09-12T18:29:08;23.60;34.90
48515;DHT22;34309;47.260;2.796;2022-09-12T18:31:34;23.60;35.00
48515;DHT22;34309;47.260;2.796;2022-09-12T18:34:00;23.60;34.90
48515;DHT22;34309;47.260;2.796;2022-09-12T18:36:27;23.70;35.00
48515;DHT22;34309;47.260;2.796;2022-09-12T18:38:53;23.70;35.00
48515;DHT22;34309;47.260;2.796;2022-09-12T18:41:23;23.70;35.10
48515;DHT22;34309;47.260;2.796;2022-09-12T18:43:56;23.70;35.20
48515;DHT22;34309;47.260;2.796;2022-09-12T18:46:23;23.70;35.30
48515;DHT22;34309;47.260;2.796;2022-09-12T18:48:49;23.70;35.30
48515;DHT22;34309;47.260;2.796;2022-09-12T18:51:17;23.70;35.30